Montreal (YUL/CYUL)

Information

Location
Montreal, QB, Canada
Local Time
01:34 / 1:34 am
GMT Time
06:34 / 6:34 am
Gates
Unassigned
No FAA reported delays
METAR CYUL 220600Z 00000KT 15SM OVC034 00/M02 A2994 RMK SC8 SLP140
TAF TAF CYUL 220538Z 2206/2306 VRB03KT P6SM OVC030 TEMPO 2206/2209 OVC020 FM220900 VRB03KT P6SM OVC012 TEMPO 2209/2214 4SM BR OVC007 PROB30 2209/2214 1SM BR OVC004 FM221400 VRB03KT P6SM OVC010 TEMPO 2217/2224 BKN025 FM230500 VRB03KT 2SM -SHRA BR OVC005 RMK NX
  • No charts available